createdAt,value
2018-02-03T00:12:34.033Z,96875.37
2018-02-03T00:23:24.470Z,96871.52
2018-02-03T00:34:14.657Z,96872.23
2018-02-03T00:48:15.950Z,96854.33
2018-02-03T00:59:06.194Z,96860.41
2018-02-03T01:13:05.915Z,96863.09
2018-02-03T01:27:06.400Z,96849.47
2018-02-03T01:37:56.566Z,96857.66
2018-02-03T01:51:56.689Z,96861.98
2018-02-03T02:05:57.486Z,96869.81
2018-02-03T02:19:58.199Z,96857.64
2018-02-03T02:33:58.167Z,96869.57
2018-02-03T02:35:03.121Z,96872.27
2018-02-03T02:49:08.500Z,96870.86
2018-02-03T02:59:59.165Z,96864.67
2018-02-03T03:10:49.579Z,96873.59
2018-02-03T03:21:40.292Z,96874.53
2018-02-03T03:32:30.467Z,96865.98
2018-02-03T03:43:21.124Z,96871.98
2018-02-03T03:57:22.183Z,96871.75
2018-02-03T04:11:23.393Z,96867.95
2018-02-03T04:25:23.812Z,96875.12
2018-02-03T04:39:23.712Z,96872.22
2018-02-03T04:53:29.362Z,96880.42
2018-02-03T05:04:19.642Z,96888.40
2018-02-03T05:21:35.667Z,96881.48
2018-02-03T05:32:26.571Z,96868.02
2018-02-03T05:43:17.017Z,96861.63
2018-02-03T05:54:07.577Z,96859.66
2018-02-03T06:08:08.206Z,96863.97
2018-02-03T06:18:58.405Z,96872.10
2018-02-03T06:29:48.783Z,96884.09
2018-02-03T06:43:54.877Z,96876.08
2018-02-03T06:56:38.947Z,96870.39
2018-02-03T06:57:43.675Z,96869.13
2018-02-03T06:58:48.302Z,96868.31
2018-02-03T06:59:53.056Z,96869.18
2018-02-03T07:00:57.792Z,96869.98
2018-02-03T07:02:02.660Z,96862.70
2018-02-03T07:03:07.253Z,96869.42
2018-02-03T07:04:11.842Z,96864.63
2018-02-03T07:05:16.528Z,96867.80
2018-02-03T07:06:21.191Z,96872.32
2018-02-03T07:07:25.855Z,96873.50
2018-02-03T07:08:30.872Z,96868.72
2018-02-03T07:09:35.575Z,96867.48
2018-02-03T07:10:40.278Z,96863.45
2018-02-03T07:11:44.935Z,96866.00
2018-02-03T07:12:49.701Z,96864.03
2018-02-03T07:13:54.374Z,96861.83
2018-02-03T07:14:59.464Z,96859.23
2018-02-03T07:16:04.152Z,96857.62
2018-02-03T07:17:08.924Z,96862.59
2018-02-03T07:18:13.710Z,96855.28
2018-02-03T07:19:18.460Z,96846.59
2018-02-03T07:20:23.232Z,96850.01
2018-02-03T07:21:28.238Z,96849.28
2018-02-03T07:22:32.956Z,96846.97
2018-02-03T07:23:37.763Z,96847.45
2018-02-03T07:24:42.666Z,96840.87
2018-02-03T07:25:47.609Z,96848.95
2018-02-03T07:26:52.362Z,96845.22
2018-02-03T07:27:57.504Z,96852.31
2018-02-03T07:29:02.381Z,96847.38
2018-02-03T07:30:08.016Z,96849.81
2018-02-03T07:31:12.703Z,96852.98
2018-02-03T07:32:17.741Z,96852.64
2018-02-03T07:33:23.850Z,96852.00
2018-02-03T07:34:29.140Z,96854.50
2018-02-03T07:35:33.819Z,96856.48
2018-02-03T07:36:40.503Z,96858.95
2018-02-03T07:37:45.261Z,96860.70
2018-02-03T07:38:49.405Z,96862.59
2018-02-03T07:39:54.069Z,96861.70
2018-02-03T07:40:59.119Z,96858.34
2018-02-03T07:42:04.023Z,96858.96
2018-02-03T07:43:08.832Z,96864.55
2018-02-03T07:44:13.809Z,96856.65
2018-02-03T07:45:18.623Z,96864.66
2018-02-03T07:46:23.471Z,96864.47
2018-02-03T07:47:28.596Z,96866.13
2018-02-03T07:48:33.470Z,96864.02
2018-02-03T07:49:38.336Z,96866.45
2018-02-03T07:50:43.175Z,96870.55
2018-02-03T07:51:47.985Z,96875.19
2018-02-03T07:52:52.856Z,96869.67
2018-02-03T07:53:57.951Z,96873.27
2018-02-03T07:55:02.970Z,96872.56
2018-02-03T07:56:07.892Z,96876.38
2018-02-03T07:57:12.828Z,96875.11
2018-02-03T07:58:17.662Z,96874.84
2018-02-03T07:59:22.542Z,96877.88
2018-02-03T08:00:27.643Z,96874.75
2018-02-03T08:01:32.479Z,96876.97
2018-02-03T08:02:37.315Z,96881.08
2018-02-03T08:03:42.150Z,96878.09
2018-02-03T08:04:46.938Z,96885.92
2018-02-03T08:05:51.733Z,96883.36
2018-02-03T08:06:56.882Z,96886.50
2018-02-03T08:08:01.689Z,96888.67
2018-02-03T08:09:06.663Z,96887.01
2018-02-03T08:10:11.450Z,96885.80
2018-02-03T08:11:16.332Z,96894.62
2018-02-03T08:12:21.188Z,96892.88
2018-02-03T08:13:26.279Z,96891.30
2018-02-03T08:14:31.096Z,96893.74
2018-02-03T08:15:36.037Z,96890.02
2018-02-03T08:16:40.887Z,96891.44
2018-02-03T08:17:45.766Z,96890.06
2018-02-03T08:18:50.581Z,96889.07
2018-02-03T08:19:55.685Z,96889.88
2018-02-03T08:21:00.582Z,96886.63
2018-02-03T08:22:05.411Z,96886.25
2018-02-03T08:23:10.250Z,96888.53
2018-02-03T08:24:14.993Z,96890.12
2018-02-03T08:25:20.580Z,96893.59
2018-02-03T08:26:25.680Z,96893.02
2018-02-03T08:27:30.446Z,96892.99
2018-02-03T08:28:35.293Z,96894.09
2018-02-03T08:29:40.107Z,96889.84
2018-02-03T08:30:44.918Z,96891.11
2018-02-03T08:31:50.068Z,96893.90
2018-02-03T08:32:54.871Z,96888.48
2018-02-03T08:33:59.883Z,96892.23
2018-02-03T08:35:04.756Z,96893.84
2018-02-03T08:36:09.555Z,96894.11
2018-02-03T08:37:14.441Z,96891.33
2018-02-03T08:38:19.247Z,96892.83
2018-02-03T08:39:24.015Z,96895.53
2018-02-03T08:40:28.887Z,96891.33
2018-02-03T08:41:33.706Z,96891.39
2018-02-03T08:42:38.638Z,96888.83
2018-02-03T08:43:43.751Z,96884.69
2018-02-03T08:44:48.564Z,96883.39
2018-02-03T08:45:53.386Z,96883.16
2018-02-03T08:46:58.257Z,96879.50
2018-02-03T08:48:03.131Z,96885.08
2018-02-03T08:49:07.952Z,96887.59
2018-02-03T08:50:13.083Z,96888.13
2018-02-03T08:51:17.884Z,96888.78
2018-02-03T08:52:22.656Z,96890.30
2018-02-03T08:53:27.583Z,96888.23
2018-02-03T08:54:32.420Z,96892.13
2018-02-03T08:55:37.225Z,96893.91
2018-02-03T08:56:42.872Z,96891.89
2018-02-03T08:57:47.687Z,96891.42
2018-02-03T08:58:52.610Z,96890.59
2018-02-03T08:59:57.758Z,96888.26
2018-02-03T09:01:02.895Z,96887.56
2018-02-03T09:02:07.696Z,96893.39
2018-02-03T09:03:13.015Z,96895.44
2018-02-03T09:04:17.827Z,96892.53
2018-02-03T09:05:22.647Z,96895.81
2018-02-03T09:06:27.446Z,96895.68
2018-02-03T09:07:32.262Z,96896.81
2018-02-03T09:08:36.984Z,96900.92
2018-02-03T09:09:41.819Z,96895.55
2018-02-03T09:10:47.391Z,96899.20
2018-02-03T09:11:56.885Z,96903.45
2018-02-03T09:13:01.753Z,96899.55
2018-02-03T09:14:06.664Z,96901.16
2018-02-03T09:15:11.785Z,96900.78
2018-02-03T09:16:16.606Z,96898.23
2018-02-03T09:17:21.419Z,96901.63
2018-02-03T09:18:26.251Z,96900.34
2018-02-03T09:19:31.080Z,96898.25
2018-02-03T09:20:35.868Z,96897.69
2018-02-03T09:21:41.943Z,96900.45
2018-02-03T09:22:46.755Z,96900.17
2018-02-03T09:23:51.532Z,96892.97
2018-02-03T09:24:56.248Z,96895.68
2018-02-03T09:26:01.045Z,96899.36
2018-02-03T09:27:05.823Z,96897.09
2018-02-03T09:28:10.848Z,96893.69
2018-02-03T09:29:15.612Z,96893.66
2018-02-03T09:30:20.367Z,96891.94
2018-02-03T09:31:25.559Z,96893.55
2018-02-03T09:32:30.377Z,96892.39
2018-02-03T09:33:35.185Z,96898.92
2018-02-03T09:34:40.257Z,96895.64
2018-02-03T09:35:45.072Z,96892.69
2018-02-03T09:36:49.884Z,96894.94
2018-02-03T09:37:56.241Z,96889.32
2018-02-03T09:39:01.093Z,96891.05
2018-02-03T09:40:05.939Z,96888.45
2018-02-03T09:41:11.186Z,96893.58
2018-02-03T09:42:16.003Z,96890.73
2018-02-03T09:43:20.861Z,96893.27
2018-02-03T09:44:25.680Z,96889.51
2018-02-03T09:45:30.635Z,96886.98
2018-02-03T09:46:35.431Z,96885.12
2018-02-03T09:47:40.640Z,96892.05
2018-02-03T09:48:45.475Z,96887.02
2018-02-03T09:49:50.374Z,96892.05
2018-02-03T09:50:55.218Z,96896.34
2018-02-03T09:52:00.045Z,96893.46
2018-02-03T09:53:04.942Z,96892.34
2018-02-03T09:54:10.051Z,96894.61
2018-02-03T09:55:14.874Z,96893.17
2018-02-03T09:56:19.735Z,96892.56
2018-02-03T09:57:24.550Z,96894.14
2018-02-03T09:58:29.460Z,96887.92
2018-02-03T09:59:34.377Z,96893.25
2018-02-03T10:00:39.582Z,96887.92
2018-02-03T10:01:44.872Z,96882.11
2018-02-03T10:02:49.739Z,96888.83
2018-02-03T10:03:54.548Z,96883.56
2018-02-03T10:04:59.440Z,96882.58
2018-02-03T10:06:04.213Z,96886.02
2018-02-03T10:07:09.347Z,96890.84
2018-02-03T10:08:14.155Z,96887.96
2018-02-03T10:09:19.001Z,96887.27
2018-02-03T10:10:23.789Z,96884.25
2018-02-03T10:11:28.532Z,96885.87
2018-02-03T10:12:33.342Z,96888.52
2018-02-03T10:13:38.460Z,96889.60
2018-02-03T10:14:43.235Z,96886.23
2018-02-03T10:15:48.026Z,96892.68
2018-02-03T10:16:52.969Z,96893.29
2018-02-03T10:17:57.685Z,96891.09
2018-02-03T10:19:02.496Z,96888.88
2018-02-03T10:20:07.691Z,96885.71
2018-02-03T10:21:12.578Z,96892.86
2018-02-03T10:22:17.371Z,96888.66
2018-02-03T10:23:22.137Z,96884.69
2018-02-03T10:24:26.875Z,96885.06
2018-02-03T10:25:31.647Z,96882.64
2018-02-03T10:26:36.918Z,96883.73
2018-02-03T10:27:41.675Z,96885.49
2018-02-03T10:28:46.501Z,96881.34
2018-02-03T10:29:51.198Z,96881.18
2018-02-03T10:30:56.045Z,96882.46
2018-02-03T10:32:00.806Z,96884.79
2018-02-03T10:33:05.826Z,96879.84
2018-02-03T10:34:12.487Z,96877.64
2018-02-03T10:35:17.485Z,96872.25
2018-02-03T10:36:22.393Z,96871.50
2018-02-03T10:37:27.169Z,96864.14
2018-02-03T10:38:31.918Z,96867.60
2018-02-03T10:39:37.144Z,96870.34
2018-02-03T10:40:41.975Z,96876.45
2018-02-03T10:41:46.805Z,96873.83
2018-02-03T10:42:51.598Z,96870.36
2018-02-03T10:43:56.400Z,96871.62
2018-02-03T10:45:01.153Z,96875.74
2018-02-03T10:46:06.309Z,96870.10
2018-02-03T10:47:11.196Z,96868.37
2018-02-03T10:48:15.916Z,96869.91
2018-02-03T10:49:20.819Z,96867.26
2018-02-03T10:50:25.721Z,96863.73
2018-02-03T10:51:30.646Z,96865.27
2018-02-03T10:52:35.888Z,96863.31
2018-02-03T10:53:41.361Z,96865.92
2018-02-03T10:54:46.184Z,96868.41
2018-02-03T10:55:51.828Z,96865.69
2018-02-03T10:56:56.849Z,96863.17
2018-02-03T10:58:02.573Z,96861.13
2018-02-03T10:59:07.982Z,96862.58
2018-02-03T11:00:12.733Z,96865.39
2018-02-03T11:01:17.517Z,96865.67
2018-02-03T11:02:22.557Z,96859.89
2018-02-03T11:03:27.572Z,96864.16
2018-02-03T11:04:32.472Z,96862.52
2018-02-03T11:05:37.976Z,96865.15
2018-02-03T11:06:43.081Z,96867.59
2018-02-03T11:07:47.876Z,96860.64
2018-02-03T11:08:52.792Z,96858.54
2018-02-03T11:09:57.667Z,96857.31
2018-02-03T11:11:02.538Z,96857.94
2018-02-03T11:12:07.746Z,96858.74
2018-02-03T11:13:12.669Z,96864.10
2018-02-03T11:14:17.533Z,96864.78
2018-02-03T11:15:22.398Z,96862.97
2018-02-03T11:16:27.355Z,96857.80
2018-02-03T11:17:32.051Z,96858.95
2018-02-03T11:18:37.065Z,96851.92
2018-02-03T11:19:41.831Z,96855.14
2018-02-03T11:20:46.685Z,96854.78
2018-02-03T11:21:51.514Z,96857.69
2018-02-03T11:22:56.427Z,96857.22
2018-02-03T11:24:01.378Z,96855.36
2018-02-03T11:25:06.608Z,96857.28
2018-02-03T11:26:11.458Z,96858.09
2018-02-03T11:27:16.296Z,96859.08
2018-02-03T11:28:21.311Z,96860.18
2018-02-03T11:29:26.150Z,96857.98
2018-02-03T11:30:30.973Z,96852.32
2018-02-03T11:31:36.293Z,96852.05
2018-02-03T11:32:41.097Z,96855.64
2018-02-03T11:33:45.946Z,96853.81
2018-02-03T11:34:50.764Z,96850.50
2018-02-03T11:35:55.390Z,96855.15
2018-02-03T11:37:00.129Z,96850.67
2018-02-03T11:38:05.156Z,96850.34
2018-02-03T11:39:09.829Z,96854.28
2018-02-03T11:40:14.504Z,96846.34
2018-02-03T11:41:19.120Z,96852.78
2018-02-03T11:42:23.758Z,96853.05
2018-02-03T11:43:28.349Z,96855.66
2018-02-03T11:44:33.457Z,96852.41
2018-02-03T11:45:38.156Z,96857.94
2018-02-03T11:46:42.923Z,96851.80
2018-02-03T11:47:47.639Z,96848.70
2018-02-03T11:48:52.448Z,96851.48
2018-02-03T11:49:57.215Z,96855.02
2018-02-03T11:51:02.349Z,96847.66
2018-02-03T11:52:07.144Z,96850.69
2018-02-03T11:53:11.800Z,96849.22
2018-02-03T11:54:16.577Z,96843.14
2018-02-03T11:55:21.358Z,96846.97
2018-02-03T11:56:26.130Z,96845.23
2018-02-03T11:57:31.952Z,96843.06
2018-02-03T11:58:36.604Z,96843.41
2018-02-03T11:59:41.344Z,96843.36
2018-02-03T12:00:46.262Z,96837.58
2018-02-03T12:01:51.100Z,96837.92
2018-02-03T12:02:56.201Z,96835.38
2018-02-03T12:04:01.473Z,96836.84
2018-02-03T12:05:06.403Z,96833.18
2018-02-03T12:06:11.228Z,96839.13
2018-02-03T12:07:16.034Z,96832.84
2018-02-03T12:08:20.854Z,96835.54
2018-02-03T12:09:25.677Z,96827.33
2018-02-03T12:10:30.940Z,96826.38
2018-02-03T12:11:36.359Z,96824.47
2018-02-03T12:12:41.198Z,96827.33
2018-02-03T12:13:46.606Z,96824.30
2018-02-03T12:14:51.443Z,96822.30
2018-02-03T12:15:56.281Z,96825.58
2018-02-03T12:17:01.484Z,96826.16
2018-02-03T12:18:06.285Z,96823.70
2018-02-03T12:19:11.072Z,96825.69
2018-02-03T12:20:15.874Z,96827.60
2018-02-03T12:21:21.028Z,96824.83
2018-02-03T12:22:25.785Z,96827.66
2018-02-03T12:23:30.931Z,96830.07
2018-02-03T12:24:35.728Z,96825.78
2018-02-03T12:25:40.524Z,96825.00
2018-02-03T12:26:45.251Z,96822.09
2018-02-03T12:27:49.992Z,96827.59
2018-02-03T12:28:55.000Z,96820.22
2018-02-03T12:29:59.822Z,96814.55
2018-02-03T12:31:04.623Z,96818.60
2018-02-03T12:32:09.517Z,96815.03
2018-02-03T12:33:14.372Z,96817.04
2018-02-03T12:34:19.821Z,96822.22
2018-02-03T12:35:24.854Z,96820.84
2018-02-03T12:36:29.744Z,96818.70
2018-02-03T12:37:34.637Z,96810.77
2018-02-03T12:38:39.416Z,96813.27
2018-02-03T12:39:44.139Z,96812.17
2018-02-03T12:40:48.862Z,96806.17
2018-02-03T12:41:53.968Z,96813.81
2018-02-03T12:42:58.545Z,96814.81
2018-02-03T12:44:03.294Z,96810.26
2018-02-03T12:45:07.919Z,96799.63
2018-02-03T12:46:12.538Z,96797.44
2018-02-03T12:47:17.115Z,96797.34
2018-02-03T12:48:21.831Z,96799.96
2018-02-03T12:49:26.685Z,96802.95
2018-02-03T12:50:32.488Z,96799.43
2018-02-03T12:51:37.468Z,96798.25
2018-02-03T12:52:42.274Z,96798.79
2018-02-03T12:53:47.345Z,96799.16
2018-02-03T12:54:52.211Z,96797.75
2018-02-03T12:55:57.007Z,96792.89
2018-02-03T12:57:01.736Z,96801.95
2018-02-03T12:58:06.559Z,96792.13
2018-02-03T12:59:11.317Z,96793.13
2018-02-03T13:00:16.348Z,96789.00
2018-02-03T13:01:21.129Z,96790.36
2018-02-03T13:02:25.875Z,96782.27
2018-02-03T13:03:30.687Z,96783.27
2018-02-03T13:04:35.484Z,96788.06
2018-02-03T13:05:40.246Z,96787.63
2018-02-03T13:06:45.083Z,96789.84
2018-02-03T13:07:49.851Z,96789.36
2018-02-03T13:08:54.633Z,96783.02
2018-02-03T13:09:59.364Z,96783.03
2018-02-03T13:11:04.065Z,96780.77
2018-02-03T13:12:09.063Z,96779.51
2018-02-03T13:13:13.819Z,96782.13
2018-02-03T13:14:18.558Z,96783.73
2018-02-03T13:15:23.398Z,96782.29
2018-02-03T13:16:28.148Z,96788.97
2018-02-03T13:17:33.198Z,96784.63
2018-02-03T13:18:37.939Z,96782.08
2018-02-03T13:19:42.773Z,96778.13
2018-02-03T13:20:47.603Z,96779.12
2018-02-03T13:21:52.376Z,96777.56
2018-02-03T13:22:56.958Z,96784.27
2018-02-03T13:24:02.033Z,96781.52
2018-02-03T13:25:06.621Z,96776.63
2018-02-03T13:26:11.359Z,96781.70
2018-02-03T13:27:16.054Z,96782.47
2018-02-03T13:28:20.982Z,96776.02
2018-02-03T13:29:25.788Z,96778.59
2018-02-03T13:30:31.184Z,96779.45
2018-02-03T13:31:36.133Z,96778.36
2018-02-03T13:32:40.985Z,96771.91
2018-02-03T13:33:45.795Z,96773.84
2018-02-03T13:34:50.654Z,96771.59
2018-02-03T13:35:55.553Z,96776.97
2018-02-03T13:37:00.637Z,96769.05
2018-02-03T13:38:05.619Z,96775.33
2018-02-03T13:39:10.485Z,96771.67
2018-02-03T13:40:15.412Z,96774.11
2018-02-03T13:41:20.221Z,96773.05
2018-02-03T13:42:25.096Z,96767.78
2018-02-03T13:43:30.197Z,96770.13
2018-02-03T13:44:35.004Z,96768.09
2018-02-03T13:45:39.794Z,96768.27
2018-02-03T13:46:45.234Z,96766.66
2018-02-03T13:47:50.048Z,96769.00
2018-02-03T13:48:54.808Z,96771.38
2018-02-03T13:49:59.914Z,96769.30
2018-02-03T13:51:05.488Z,96769.66
2018-02-03T13:52:10.718Z,96763.31
2018-02-03T13:53:15.555Z,96764.10
2018-02-03T13:54:20.483Z,96763.49
2018-02-03T13:55:25.524Z,96764.78
2018-02-03T13:56:30.738Z,96765.53
2018-02-03T13:57:35.606Z,96770.83
2018-02-03T13:58:40.414Z,96771.95
2018-02-03T13:59:45.517Z,96766.95
2018-02-03T14:00:50.279Z,96768.05
2018-02-03T14:01:55.080Z,96760.14
2018-02-03T14:02:59.889Z,96765.61
2018-02-03T14:04:04.682Z,96759.77
2018-02-03T14:05:09.519Z,96763.09
2018-02-03T14:06:14.424Z,96761.50
2018-02-03T14:07:19.170Z,96758.90
2018-02-03T14:08:24.302Z,96759.75
2018-02-03T14:09:29.739Z,96758.75
2018-02-03T14:10:34.484Z,96759.84
2018-02-03T14:11:39.389Z,96766.14
2018-02-03T14:12:44.124Z,96761.78
2018-02-03T14:13:49.039Z,96756.38
2018-02-03T14:14:54.950Z,96758.80
2018-02-03T14:16:00.134Z,96757.15
2018-02-03T14:17:06.006Z,96762.59
2018-02-03T14:18:10.792Z,96759.95
2018-02-03T14:19:15.549Z,96759.27
2018-02-03T14:20:20.347Z,96758.33
2018-02-03T14:21:27.353Z,96765.12
2018-02-03T14:22:32.534Z,96754.86
2018-02-03T14:23:37.401Z,96759.44
2018-02-03T14:24:46.144Z,96759.27
2018-02-03T14:25:55.404Z,96758.62
2018-02-03T14:27:00.141Z,96754.39
2018-02-03T14:28:05.078Z,96754.00
2018-02-03T14:29:10.289Z,96751.00
2018-02-03T14:30:15.672Z,96757.34
2018-02-03T14:31:20.392Z,96749.62
2018-02-03T14:32:24.956Z,96752.10
2018-02-03T14:33:29.647Z,96752.68
2018-02-03T14:34:34.412Z,96749.28
2018-02-03T14:35:39.479Z,96753.85
2018-02-03T14:36:44.295Z,96749.58
2018-02-03T14:37:49.005Z,96748.11
2018-02-03T14:38:53.760Z,96748.27
2018-02-03T14:39:58.889Z,96749.07
2018-02-03T14:41:03.725Z,96747.20
2018-02-03T14:42:08.852Z,96743.83
2018-02-03T14:43:13.584Z,96749.12
2018-02-03T14:44:18.308Z,96751.70
2018-02-03T14:45:23.078Z,96755.64
2018-02-03T14:46:27.855Z,96752.42
2018-02-03T14:47:32.648Z,96751.30
2018-02-03T14:48:37.768Z,96743.43
2018-02-03T14:49:42.657Z,96748.59
2018-02-03T14:50:47.413Z,96745.11
2018-02-03T14:51:52.184Z,96746.41
2018-02-03T14:52:56.971Z,96745.20
2018-02-03T14:54:01.710Z,96745.30
2018-02-03T14:55:07.378Z,96744.61
2018-02-03T14:56:12.088Z,96746.77
2018-02-03T14:57:16.897Z,96739.13
2018-02-03T14:58:22.611Z,96749.35
2018-02-03T14:59:27.510Z,96750.09
2018-02-03T15:00:32.245Z,96753.00
2018-02-03T15:01:37.329Z,96742.11
2018-02-03T15:02:42.290Z,96749.26
2018-02-03T15:03:47.419Z,96750.13
2018-02-03T15:04:52.280Z,96746.06
2018-02-03T15:05:56.953Z,96752.00
2018-02-03T15:07:01.670Z,96753.16
2018-02-03T15:08:07.140Z,96748.31
2018-02-03T15:09:11.768Z,96754.63
2018-02-03T15:10:16.455Z,96749.42
2018-02-03T15:11:21.148Z,96761.56
2018-02-03T15:12:25.827Z,96758.22
2018-02-03T15:13:30.508Z,96758.29
2018-02-03T15:14:35.964Z,96757.55
2018-02-03T15:15:40.797Z,96755.04
2018-02-03T15:16:45.593Z,96756.65
2018-02-03T15:17:52.553Z,96769.73
2018-02-03T15:18:57.238Z,96761.75
2018-02-03T15:20:01.952Z,96774.05
2018-02-03T15:21:07.070Z,96767.84
2018-02-03T15:22:12.922Z,96771.91
2018-02-03T15:23:17.752Z,96770.70
2018-02-03T15:24:22.463Z,96768.05
2018-02-03T15:25:27.153Z,96768.06
2018-02-03T15:26:32.277Z,96769.74
2018-02-03T15:27:37.518Z,96766.73
2018-02-03T15:28:43.054Z,96769.15
2018-02-03T15:29:47.952Z,96769.86
2018-02-03T15:30:52.783Z,96764.86
2018-02-03T15:31:57.729Z,96766.94
2018-02-03T15:33:02.547Z,96766.20
2018-02-03T15:34:07.837Z,96770.02
2018-02-03T15:35:12.664Z,96770.63
2018-02-03T15:36:17.607Z,96769.63
2018-02-03T15:37:22.750Z,96768.02
2018-02-03T15:38:28.245Z,96765.80
2018-02-03T15:39:33.394Z,96768.45
2018-02-03T15:40:38.737Z,96773.09
2018-02-03T15:41:43.632Z,96772.69
2018-02-03T15:42:48.523Z,96772.05
2018-02-03T15:43:53.530Z,96767.08
2018-02-03T15:44:58.392Z,96768.19
2018-02-03T15:46:03.274Z,96763.97
2018-02-03T15:47:08.544Z,96769.13
2018-02-03T15:48:13.392Z,96767.63
2018-02-03T15:49:18.335Z,96766.28
2018-02-03T15:50:23.100Z,96765.75
2018-02-03T15:51:27.933Z,96774.26
2018-02-03T15:52:32.915Z,96769.36
2018-02-03T15:53:38.888Z,96766.38
2018-02-03T15:54:43.941Z,96768.42
2018-02-03T15:55:48.823Z,96763.13
2018-02-03T15:56:53.765Z,96765.27
2018-02-03T15:57:58.835Z,96763.87
2018-02-03T15:59:03.645Z,96762.13
2018-02-03T16:00:09.050Z,96767.05
2018-02-03T16:01:13.822Z,96765.34
2018-02-03T16:02:19.059Z,96763.23
2018-02-03T16:03:23.775Z,96764.67
2018-02-03T16:04:28.518Z,96767.59
2018-02-03T16:05:33.451Z,96758.33
2018-02-03T16:06:39.144Z,96768.28
2018-02-03T16:07:45.188Z,96762.92
2018-02-03T16:08:50.290Z,96764.26
2018-02-03T16:09:56.577Z,96760.47
2018-02-03T16:11:02.265Z,96764.02
2018-02-03T16:12:07.160Z,96764.47
2018-02-03T16:13:12.645Z,96767.28
2018-02-03T16:14:18.231Z,96768.46
2018-02-03T16:15:24.676Z,96765.53
2018-02-03T16:16:29.563Z,96768.91
2018-02-03T16:17:34.708Z,96772.88
2018-02-03T16:18:39.716Z,96775.84
2018-02-03T16:19:44.777Z,96775.88
2018-02-03T16:20:49.792Z,96776.44
2018-02-03T16:21:54.646Z,96781.64
2018-02-03T16:22:59.500Z,96785.55
2018-02-03T16:24:04.300Z,96775.73
2018-02-03T16:25:09.576Z,96787.90
2018-02-03T16:26:14.320Z,96787.06
2018-02-03T16:27:19.610Z,96791.03
2018-02-03T16:28:24.650Z,96789.98
2018-02-03T16:29:29.572Z,96788.12
2018-02-03T16:30:34.466Z,96782.83
2018-02-03T16:31:39.906Z,96783.94
2018-02-03T16:32:44.790Z,96789.42
2018-02-03T16:33:49.835Z,96793.60
2018-02-03T16:34:54.906Z,96789.45
2018-02-03T16:35:59.771Z,96783.75
2018-02-03T16:37:04.548Z,96783.98
2018-02-03T16:38:09.740Z,96787.16
2018-02-03T16:39:15.882Z,96785.86
2018-02-03T16:40:20.731Z,96786.33
2018-02-03T16:41:25.513Z,96786.36
2018-02-03T16:42:32.072Z,96788.53
2018-02-03T16:43:37.213Z,96788.75
2018-02-03T16:44:42.549Z,96793.05
2018-02-03T16:45:47.312Z,96790.60
2018-02-03T16:46:52.304Z,96790.88
2018-02-03T16:47:56.996Z,96795.28
2018-02-03T16:49:01.768Z,96800.33
2018-02-03T16:50:06.853Z,96799.08
2018-02-03T16:51:11.658Z,96796.94
2018-02-03T16:52:16.458Z,96809.78
2018-02-03T16:53:21.223Z,96800.50
2018-02-03T16:54:25.997Z,96805.20
2018-02-03T16:55:30.759Z,96806.56
2018-02-03T16:56:40.061Z,96806.59
2018-02-03T16:57:44.814Z,96811.58
2018-02-03T16:58:49.727Z,96816.91
2018-02-03T16:59:54.478Z,96818.80
2018-02-03T17:00:59.195Z,96819.52
2018-02-03T17:02:03.788Z,96811.02
2018-02-03T17:03:08.622Z,96818.63
2018-02-03T17:04:13.149Z,96813.89
2018-02-03T17:05:17.876Z,96820.88
2018-02-03T17:06:22.742Z,96820.60
2018-02-03T17:07:28.586Z,96819.80
2018-02-03T17:08:34.101Z,96822.73
2018-02-03T17:09:39.417Z,96820.52
2018-02-03T17:10:44.482Z,96821.17
2018-02-03T17:11:49.360Z,96823.87
2018-02-03T17:12:54.150Z,96823.67
2018-02-03T17:13:59.878Z,96820.86
2018-02-03T17:15:04.613Z,96819.91
2018-02-03T17:16:10.394Z,96824.08
2018-02-03T17:17:15.180Z,96826.64
2018-02-03T17:18:19.961Z,96825.63
2018-02-03T17:19:24.775Z,96830.47
2018-02-03T17:20:30.517Z,96830.39
2018-02-03T17:21:36.737Z,96828.97
2018-02-03T17:22:44.868Z,96832.61
2018-02-03T17:23:50.368Z,96831.28
2018-02-03T17:24:55.864Z,96835.05
2018-02-03T17:26:00.719Z,96833.85
2018-02-03T17:27:06.142Z,96835.27
2018-02-03T17:28:11.579Z,96830.49
2018-02-03T17:29:19.215Z,96827.23
2018-02-03T17:30:24.072Z,96830.64
2018-02-03T17:31:28.993Z,96828.94
2018-02-03T17:32:33.801Z,96830.31
2018-02-03T17:33:38.558Z,96831.49
2018-02-03T17:34:43.374Z,96835.67
2018-02-03T17:35:48.571Z,96829.49
2018-02-03T17:36:57.916Z,96834.30
2018-02-03T17:39:05.336Z,96834.67
2018-02-03T17:40:12.137Z,96832.28
2018-02-03T17:41:17.416Z,96835.74
2018-02-03T17:42:24.618Z,96834.81
2018-02-03T17:43:31.687Z,96834.61
2018-02-03T17:44:38.921Z,96833.46
2018-02-03T17:45:49.573Z,96842.06
2018-02-03T17:47:10.621Z,96837.95
2018-02-03T17:48:17.210Z,96839.11
2018-02-03T17:49:24.445Z,96833.70
2018-02-03T17:50:31.357Z,96835.40
2018-02-03T17:51:36.340Z,96835.23
2018-02-03T17:52:41.354Z,96843.34
2018-02-03T17:53:46.678Z,96842.08
2018-02-03T17:54:52.955Z,96839.80
2018-02-03T17:56:01.907Z,96836.58
2018-02-03T17:58:10.020Z,96838.51
2018-02-03T17:59:14.914Z,96844.30
2018-02-03T18:00:20.820Z,96838.74
2018-02-03T18:01:28.522Z,96840.58
2018-02-03T18:02:37.981Z,96836.30
2018-02-03T18:03:47.154Z,96841.84
2018-02-03T18:04:55.207Z,96844.50
2018-02-03T18:06:02.404Z,96844.70
2018-02-03T18:07:10.013Z,96842.66
2018-02-03T18:08:17.260Z,96845.25
2018-02-03T18:09:25.344Z,96852.30
2018-02-03T18:10:33.035Z,96851.27
2018-02-03T18:11:40.310Z,96849.80
2018-02-03T18:12:48.219Z,96852.30
2018-02-03T18:13:55.287Z,96850.08
2018-02-03T18:15:02.023Z,96857.48
2018-02-03T18:16:07.488Z,96855.03
2018-02-03T18:17:13.340Z,96856.66
2018-02-03T18:18:20.093Z,96860.78
2018-02-03T18:19:28.892Z,96860.03
2018-02-03T18:20:40.236Z,96858.13
2018-02-03T18:21:51.395Z,96859.66
2018-02-03T18:23:02.195Z,96864.72
2018-02-03T18:24:12.651Z,96861.95
2018-02-03T18:25:20.673Z,96862.13
2018-02-03T18:26:29.158Z,96865.25
2018-02-03T18:27:40.418Z,96866.77
2018-02-03T18:28:48.592Z,96870.80
2018-02-03T18:29:57.345Z,96871.05
2018-02-03T18:31:06.682Z,96870.56
2018-02-03T18:32:15.065Z,96870.84
2018-02-03T18:33:21.913Z,96870.63
2018-02-03T18:34:29.110Z,96868.36
2018-02-03T18:35:35.969Z,96871.23
2018-02-03T18:36:42.563Z,96877.66
2018-02-03T18:37:53.637Z,96875.73
2018-02-03T18:39:05.212Z,96874.89
2018-02-03T18:40:12.661Z,96872.25
2018-02-03T18:41:21.287Z,96873.31
2018-02-03T18:42:28.524Z,96868.20
2018-02-03T18:43:37.455Z,96875.16
2018-02-03T18:44:45.824Z,96874.48
2018-02-03T18:45:53.253Z,96871.55
2018-02-03T18:47:02.196Z,96874.34
2018-02-03T18:48:13.862Z,96878.05
2018-02-03T18:49:24.724Z,96879.77
2018-02-03T18:50:36.264Z,96873.44
2018-02-03T18:51:45.048Z,96874.31
2018-02-03T18:52:53.832Z,96875.41
2018-02-03T18:54:03.353Z,96873.94
2018-02-03T18:55:12.219Z,96879.34
2018-02-03T18:56:23.176Z,96880.52
2018-02-03T18:57:31.478Z,96882.64
2018-02-03T18:58:42.261Z,96879.65
2018-02-03T18:59:50.366Z,96878.73
2018-02-03T19:00:59.962Z,96877.70
2018-02-03T19:02:06.024Z,96877.59
2018-02-03T19:03:14.121Z,96883.91
2018-02-03T19:04:23.984Z,96882.06
2018-02-03T19:05:32.269Z,96879.41
2018-02-03T19:06:43.129Z,96885.98
2018-02-03T19:07:52.589Z,96885.09
2018-02-03T19:09:05.672Z,96884.66
2018-02-03T19:10:16.055Z,96880.39